Weather at Springvale Airport

Public forecast

Using degrees Celsius for public forecast. Weather courtesy of forecast.io.

Closest aviation weather report (METAR) to Springvale Airport

Closest report is Longreach Airport, 197.2 nm (365.3 km) E. Retrieved 2021/06/19 20:00 UTC (26 minutes ago):

YLRE 192000Z AUTO 00000KT 9999 // NCD 04/M01 Q1021

Closest aviation forecast (TAF) to Springvale Airport

Closest forecast is Mount Isa Airport, 185.9 nm (344.3 km) NNW. Retrieved 2021/06/19 18:03 UTC (2 hours ago):

TAF TAF YBMA 191607Z 1918/2006 15010KT CAVOK